Time;durP1;ratioP1;P1;durP2;ratioP2;P2;SDS_P1;SDS_P2;PMS_P1;PMS_P2;Temp;Humidity;BMP_temperature;BMP_pressure;BME280_temperature;BME280_humidity;BME280_pressure;Samples;Min_cycle;Max_cycle;Signal;HPM_P1;HPM_P2
2022/08/19 00:02:15;;;;;;;;;;;20.60;77.50;;;;;;5123727;27;19955;-72
2022/08/19 00:04:42;;;;;;;;;;;20.60;77.40;;;;;;5127789;27;19926;-70
2022/08/19 00:07:11;;;;;;;;;;;20.60;77.50;;;;;;5131038;27;19926;-70
2022/08/19 00:09:37;;;;;;;;;;;20.60;77.50;;;;;;5128898;27;19934;-70
2022/08/19 00:12:05;;;;;;;;;;;20.50;77.60;;;;;;5125341;27;20011;-70
2022/08/19 00:14:33;;;;;;;;;;;20.60;77.70;;;;;;5130527;27;20006;-70
2022/08/19 00:17:00;;;;;;;;;;;20.60;77.60;;;;;;5126996;27;19920;-70
2022/08/19 00:19:28;;;;;;;;;;;20.50;77.70;;;;;;5125327;27;19923;-69
2022/08/19 00:21:55;;;;;;;;;;;20.50;77.60;;;;;;5129403;27;20010;-69
2022/08/19 00:24:23;;;;;;;;;;;20.50;77.80;;;;;;5124403;27;20331;-69
2022/08/19 00:26:50;;;;;;;;;;;20.50;77.80;;;;;;5127298;27;19920;-68
2022/08/19 00:29:18;;;;;;;;;;;20.50;78.00;;;;;;5123927;27;19944;-70
2022/08/19 00:31:46;;;;;;;;;;;20.40;78.00;;;;;;5130119;27;19920;-69
2022/08/19 00:34:14;;;;;;;;;;;20.40;78.00;;;;;;5131481;27;19927;-70
2022/08/19 00:36:41;;;;;;;;;;;20.50;77.90;;;;;;5123234;27;20123;-70
2022/08/19 00:39:08;;;;;;;;;;;20.50;77.90;;;;;;5131454;27;19920;-70
2022/08/19 00:41:35;;;;;;;;;;;20.40;78.00;;;;;;5122801;27;19924;-69
2022/08/19 00:44:03;;;;;;;;;;;20.40;78.00;;;;;;5121128;27;19923;-69
2022/08/19 00:46:29;;;;;;;;;;;20.40;78.00;;;;;;5125516;27;19923;-69
2022/08/19 00:48:58;;;;;;;;;;;20.50;78.00;;;;;;5121507;27;19930;-68
2022/08/19 00:51:26;;;;;;;;;;;20.50;78.00;;;;;;5117429;27;19920;-69
2022/08/19 00:53:53;;;;;;;;;;;20.50;78.00;;;;;;5131544;27;20398;-69
2022/08/19 00:56:20;;;;;;;;;;;20.40;78.10;;;;;;5122733;27;19920;-70
2022/08/19 00:58:47;;;;;;;;;;;20.50;78.10;;;;;;5120441;27;19919;-70
2022/08/19 01:01:13;;;;;;;;;;;20.50;78.10;;;;;;5126384;27;19926;-70
2022/08/19 01:03:40;;;;;;;;;;;20.40;78.00;;;;;;5129439;27;20305;-70
2022/08/19 01:06:08;;;;;;;;;;;20.40;78.00;;;;;;5125970;27;20238;-70
2022/08/19 01:08:35;;;;;;;;;;;20.40;78.00;;;;;;5126260;27;19919;-70
2022/08/19 01:11:02;;;;;;;;;;;20.40;78.00;;;;;;5124438;28;19931;-70
2022/08/19 01:13:31;;;;;;;;;;;20.30;78.10;;;;;;5129323;27;19926;-70
2022/08/19 01:16:00;;;;;;;;;;;20.30;78.20;;;;;;5127036;27;19919;-70
2022/08/19 01:18:27;;;;;;;;;;;20.30;78.00;;;;;;5124649;27;19919;-69
2022/08/19 01:20:55;;;;;;;;;;;20.30;78.00;;;;;;5119221;27;19920;-70
2022/08/19 01:23:42;;;;;;;;;;;20.30;77.90;;;;;;5123287;27;20314;-70
2022/08/19 01:26:10;;;;;;;;;;;20.30;77.90;;;;;;5126806;27;20026;-70
2022/08/19 01:28:37;;;;;;;;;;;20.30;77.90;;;;;;5129546;27;20288;-69
2022/08/19 01:31:03;;;;;;;;;;;20.30;78.00;;;;;;5130128;27;19923;-68
2022/08/19 01:33:30;;;;;;;;;;;20.30;78.10;;;;;;5127743;27;19926;-69
2022/08/19 01:36:04;;;;;;;;;;;20.30;78.40;;;;;;5128754;27;19920;-69
2022/08/19 01:38:36;;;;;;;;;;;20.20;78.40;;;;;;5122280;27;20417;-68
2022/08/19 01:41:03;;;;;;;;;;;20.30;78.50;;;;;;5129753;27;19923;-69
2022/08/19 01:43:30;;;;;;;;;;;20.30;78.40;;;;;;5134098;27;20273;-70
2022/08/19 01:45:57;;;;;;;;;;;20.30;78.40;;;;;;5128000;27;19919;-70
2022/08/19 01:48:23;;;;;;;;;;;20.30;78.40;;;;;;5135062;27;19930;-70
2022/08/19 01:50:50;;;;;;;;;;;20.30;78.30;;;;;;5133452;27;20403;-70
2022/08/19 01:53:18;;;;;;;;;;;20.30;78.40;;;;;;5132784;27;19926;-70
2022/08/19 01:55:47;;;;;;;;;;;20.30;78.50;;;;;;5134538;27;19919;-70
2022/08/19 01:58:15;;;;;;;;;;;20.20;78.70;;;;;;5132674;27;19930;-69
2022/08/19 02:00:42;;;;;;;;;;;20.30;78.60;;;;;;5125194;27;19946;-70
2022/08/19 02:03:10;;;;;;;;;;;20.20;78.70;;;;;;5132522;27;20253;-69
2022/08/19 02:05:37;;;;;;;;;;;20.20;78.70;;;;;;5129386;27;19919;-70
2022/08/19 02:08:04;;;;;;;;;;;20.30;78.70;;;;;;5129860;27;19920;-70
2022/08/19 02:10:31;;;;;;;;;;;20.20;78.70;;;;;;5138361;27;20142;-70
2022/08/19 02:12:59;;;;;;;;;;;20.20;78.90;;;;;;5134510;27;19959;-70
2022/08/19 02:15:26;;;;;;;;;;;20.20;78.80;;;;;;5132784;27;20384;-70
2022/08/19 02:17:53;;;;;;;;;;;20.30;78.90;;;;;;5133665;27;19924;-70
2022/08/19 02:20:20;;;;;;;;;;;20.20;78.70;;;;;;5135026;27;19926;-69
2022/08/19 02:22:47;;;;;;;;;;;20.20;78.60;;;;;;5133538;27;19926;-69
2022/08/19 02:25:14;;;;;;;;;;;20.30;78.70;;;;;;5133699;27;19996;-70
2022/08/19 02:27:42;;;;;;;;;;;20.30;78.50;;;;;;5131670;27;20421;-70
2022/08/19 02:30:12;;;;;;;;;;;20.30;78.50;;;;;;5125748;27;19959;-70
2022/08/19 02:32:39;;;;;;;;;;;20.30;78.40;;;;;;5128618;27;20010;-69
2022/08/19 02:35:07;;;;;;;;;;;20.30;78.50;;;;;;5124026;27;19927;-69
2022/08/19 02:40:18;;;;;;;;;;;20.30;78.60;;;;;;5131782;27;19923;-70
2022/08/19 02:42:45;;;;;;;;;;;20.20;78.80;;;;;;5128893;27;20118;-70
2022/08/19 02:45:14;;;;;;;;;;;20.20;78.90;;;;;;5126757;27;19919;-70
2022/08/19 02:47:41;;;;;;;;;;;20.20;79.10;;;;;;5131751;27;20458;-69
2022/08/19 02:50:08;;;;;;;;;;;20.20;79.10;;;;;;5131489;27;20035;-70
2022/08/19 02:52:34;;;;;;;;;;;20.20;79.00;;;;;;5129309;27;19919;-68
2022/08/19 02:55:01;;;;;;;;;;;20.20;79.10;;;;;;5127120;27;19972;-69
2022/08/19 02:57:31;;;;;;;;;;;20.20;79.20;;;;;;5127439;27;19926;-69
2022/08/19 02:59:57;;;;;;;;;;;20.20;79.10;;;;;;5128211;27;19919;-69
2022/08/19 03:02:25;;;;;;;;;;;20.20;79.20;;;;;;5127825;27;20174;-70
2022/08/19 03:04:52;;;;;;;;;;;20.20;79.20;;;;;;5131004;27;19926;-69
2022/08/19 03:07:19;;;;;;;;;;;20.20;79.20;;;;;;5128304;27;19919;-70
2022/08/19 03:09:46;;;;;;;;;;;20.20;79.10;;;;;;5132026;27;20274;-69
2022/08/19 03:12:12;;;;;;;;;;;20.20;79.20;;;;;;5132545;27;19926;-70
2022/08/19 03:14:39;;;;;;;;;;;20.20;79.20;;;;;;5131468;27;19919;-70
2022/08/19 03:17:06;;;;;;;;;;;20.20;79.10;;;;;;5124888;27;19923;-70
2022/08/19 03:19:34;;;;;;;;;;;20.20;79.10;;;;;;5133043;27;19919;-70
2022/08/19 03:22:02;;;;;;;;;;;20.10;79.30;;;;;;5132140;27;20536;-70
2022/08/19 03:24:29;;;;;;;;;;;20.10;79.30;;;;;;5130351;27;19919;-70
2022/08/19 03:26:57;;;;;;;;;;;20.10;79.30;;;;;;5129578;27;19926;-70
2022/08/19 03:29:24;;;;;;;;;;;20.10;79.30;;;;;;5133611;27;19919;-70
2022/08/19 03:31:51;;;;;;;;;;;20.10;79.30;;;;;;5132444;27;19969;-70
2022/08/19 03:34:19;;;;;;;;;;;20.10;79.30;;;;;;5131592;27;19923;-69
2022/08/19 03:36:48;;;;;;;;;;;20.10;79.20;;;;;;5133392;27;19927;-70
2022/08/19 03:39:15;;;;;;;;;;;20.10;79.30;;;;;;5127251;27;20319;-70
2022/08/19 03:41:42;;;;;;;;;;;20.10;79.20;;;;;;5131873;27;19926;-70
2022/08/19 03:44:09;;;;;;;;;;;20.10;79.20;;;;;;5136844;27;19919;-70
2022/08/19 03:46:36;;;;;;;;;;;20.10;79.20;;;;;;5129273;27;19961;-70
2022/08/19 03:49:07;;;;;;;;;;;20.10;79.00;;;;;;5132636;27;19933;-69
2022/08/19 03:51:34;;;;;;;;;;;20.20;79.20;;;;;;5136279;27;20284;-69
2022/08/19 03:54:04;;;;;;;;;;;20.10;79.30;;;;;;5131609;27;19942;-69
2022/08/19 03:56:31;;;;;;;;;;;20.10;79.30;;;;;;5127656;27;20369;-69
2022/08/19 03:58:59;;;;;;;;;;;20.20;79.30;;;;;;5127356;27;19928;-69
2022/08/19 04:01:27;;;;;;;;;;;20.10;79.40;;;;;;5126838;27;19919;-70
2022/08/19 04:03:54;;;;;;;;;;;20.10;79.30;;;;;;5126148;27;19939;-70
2022/08/19 04:06:23;;;;;;;;;;;20.10;79.30;;;;;;5132278;27;19924;-70
2022/08/19 04:08:50;;;;;;;;;;;20.10;79.30;;;;;;5130546;27;20280;-70
2022/08/19 04:11:21;;;;;;;;;;;20.10;79.50;;;;;;5130665;27;20030;-70
2022/08/19 04:13:48;;;;;;;;;;;20.10;79.50;;;;;;5131697;27;19972;-70
2022/08/19 04:16:14;;;;;;;;;;;20.10;79.50;;;;;;5126446;27;19923;-69
2022/08/19 04:18:42;;;;;;;;;;;20.10;79.60;;;;;;5128132;27;19919;-68
2022/08/19 04:21:09;;;;;;;;;;;20.10;79.60;;;;;;5124861;27;19927;-68
2022/08/19 04:23:36;;;;;;;;;;;20.10;79.60;;;;;;5128147;27;19926;-70
2022/08/19 04:26:03;;;;;;;;;;;20.10;79.60;;;;;;5129879;27;20030;-70
2022/08/19 04:28:32;;;;;;;;;;;20.20;79.50;;;;;;5124628;27;20310;-70
2022/08/19 04:30:59;;;;;;;;;;;20.10;79.60;;;;;;5127934;27;20419;-70
2022/08/19 04:33:26;;;;;;;;;;;20.10;79.70;;;;;;5124279;27;19923;-70
2022/08/19 04:35:53;;;;;;;;;;;20.20;79.60;;;;;;5129246;27;19919;-69
2022/08/19 04:38:22;;;;;;;;;;;20.10;79.80;;;;;;5127079;27;19927;-69
2022/08/19 04:43:36;;;;;;;;;;;20.20;79.60;;;;;;5128888;27;19919;-70
2022/08/19 04:46:05;;;;;;;;;;;20.10;79.70;;;;;;5130730;27;20010;-69
2022/08/19 04:48:32;;;;;;;;;;;20.10;79.70;;;;;;5125186;27;19923;-70
2022/08/19 04:50:59;;;;;;;;;;;20.10;79.70;;;;;;5130107;27;20715;-70
2022/08/19 04:53:28;;;;;;;;;;;20.20;79.60;;;;;;5127458;27;19927;-70
2022/08/19 04:55:56;;;;;;;;;;;20.10;79.70;;;;;;5125204;27;20333;-70
2022/08/19 04:58:23;;;;;;;;;;;20.20;79.60;;;;;;5131420;27;20268;-68
2022/08/19 05:00:51;;;;;;;;;;;20.10;79.80;;;;;;5128425;27;19920;-70
2022/08/19 05:03:17;;;;;;;;;;;20.10;79.80;;;;;;5128369;27;19919;-70
2022/08/19 05:05:45;;;;;;;;;;;20.10;79.70;;;;;;5126258;27;19927;-69
2022/08/19 05:08:12;;;;;;;;;;;20.10;79.70;;;;;;5130378;27;20822;-69
2022/08/19 05:10:40;;;;;;;;;;;20.10;79.70;;;;;;5130170;27;19926;-70
2022/08/19 05:13:09;;;;;;;;;;;20.20;79.60;;;;;;5131559;27;19919;-70
2022/08/19 05:15:36;;;;;;;;;;;20.10;79.50;;;;;;5133002;27;19923;-70
2022/08/19 05:23:32;;;;;;;;;;;20.20;79.40;;;;;;5135549;27;19923;-70
2022/08/19 05:25:59;;;;;;;;;;;20.20;79.50;;;;;;5138573;27;19942;-70
2022/08/19 05:28:25;;;;;;;;;;;20.20;79.50;;;;;;5134533;27;19927;-69
2022/08/19 05:30:55;;;;;;;;;;;20.30;79.30;;;;;;5132410;27;19919;-69
2022/08/19 05:33:24;;;;;;;;;;;20.30;79.50;;;;;;5131751;27;19931;-69
2022/08/19 05:35:51;;;;;;;;;;;20.20;79.50;;;;;;5135257;27;19920;-69
2022/08/19 05:38:18;;;;;;;;;;;20.30;79.50;;;;;;5130729;27;19925;-69
2022/08/19 05:40:46;;;;;;;;;;;20.30;79.40;;;;;;5126551;27;20619;-70
2022/08/19 05:43:15;;;;;;;;;;;20.30;79.40;;;;;;5134370;27;19965;-70
2022/08/19 05:45:42;;;;;;;;;;;20.30;79.00;;;;;;5133258;27;19949;-70
2022/08/19 05:48:10;;;;;;;;;;;20.30;79.20;;;;;;5135348;27;19923;-70
2022/08/19 05:50:39;;;;;;;;;;;20.30;79.30;;;;;;5133678;27;19949;-70
2022/08/19 05:53:06;;;;;;;;;;;20.30;79.30;;;;;;5134927;27;19923;-70
2022/08/19 05:55:33;;;;;;;;;;;20.40;79.20;;;;;;5130206;27;19923;-70
2022/08/19 05:58:01;;;;;;;;;;;20.40;79.20;;;;;;5133227;27;20037;-70
2022/08/19 06:00:31;;;;;;;;;;;20.40;79.00;;;;;;5117117;27;20352;-70
2022/08/19 06:03:02;;;;;;;;;;;20.50;78.40;;;;;;5133287;27;19924;-70
2022/08/19 06:05:29;;;;;;;;;;;20.50;78.60;;;;;;5119987;27;20459;-70
2022/08/19 06:07:58;;;;;;;;;;;20.50;78.90;;;;;;5124425;27;19924;-70
2022/08/19 06:10:25;;;;;;;;;;;20.50;78.70;;;;;;5132587;27;19930;-70
2022/08/19 06:12:52;;;;;;;;;;;20.50;78.90;;;;;;5129295;27;19919;-70
2022/08/19 06:15:19;;;;;;;;;;;20.50;79.00;;;;;;5126762;27;19919;-70
2022/08/19 06:17:46;;;;;;;;;;;20.50;79.00;;;;;;5129297;27;19937;-70
2022/08/19 06:20:14;;;;;;;;;;;20.50;79.00;;;;;;5132587;27;19919;-70
2022/08/19 06:22:42;;;;;;;;;;;20.50;78.80;;;;;;5132872;27;19948;-69
2022/08/19 06:25:10;;;;;;;;;;;20.60;78.90;;;;;;5128017;27;19923;-69
2022/08/19 06:27:37;;;;;;;;;;;20.50;79.00;;;;;;5129937;27;19964;-70
2022/08/19 06:30:04;;;;;;;;;;;20.50;79.00;;;;;;5130742;27;19919;-69
2022/08/19 06:32:31;;;;;;;;;;;20.50;79.00;;;;;;5132176;27;19919;-70
2022/08/19 06:34:58;;;;;;;;;;;20.50;79.00;;;;;;5131955;27;19920;-69
2022/08/19 06:37:25;;;;;;;;;;;20.60;79.00;;;;;;5133552;27;19923;-70
2022/08/19 06:39:51;;;;;;;;;;;20.60;79.10;;;;;;5133632;27;20395;-69
2022/08/19 06:42:20;;;;;;;;;;;20.60;79.00;;;;;;5134649;27;19919;-69
2022/08/19 06:44:48;;;;;;;;;;;20.60;79.00;;;;;;5126085;27;19976;-70
2022/08/19 06:47:16;;;;;;;;;;;20.60;78.70;;;;;;5131647;27;19954;-70
2022/08/19 06:49:43;;;;;;;;;;;20.60;78.80;;;;;;5133328;27;20369;-70
2022/08/19 06:52:11;;;;;;;;;;;20.60;78.80;;;;;;5130409;27;20296;-69
2022/08/19 06:54:38;;;;;;;;;;;20.70;78.10;;;;;;5133720;27;19926;-70
2022/08/19 06:57:06;;;;;;;;;;;20.70;78.70;;;;;;5125739;27;19961;-70
2022/08/19 06:59:34;;;;;;;;;;;20.70;78.20;;;;;;5130333;27;19927;-70
2022/08/19 07:02:05;;;;;;;;;;;20.70;78.60;;;;;;5128966;27;19919;-69
2022/08/19 07:04:32;;;;;;;;;;;20.70;78.70;;;;;;5133349;27;19923;-69
2022/08/19 07:07:00;;;;;;;;;;;20.80;78.70;;;;;;5137483;27;20399;-69
2022/08/19 07:09:27;;;;;;;;;;;20.80;78.60;;;;;;5125854;27;19945;-70
2022/08/19 07:11:54;;;;;;;;;;;20.90;78.60;;;;;;5133555;27;19919;-70
2022/08/19 07:14:22;;;;;;;;;;;20.90;78.60;;;;;;5129244;27;19951;-69
2022/08/19 07:16:51;;;;;;;;;;;21.00;78.40;;;;;;5124028;27;20014;-69
2022/08/19 07:19:18;;;;;;;;;;;21.00;78.40;;;;;;5130791;27;20009;-69
2022/08/19 07:21:46;;;;;;;;;;;21.10;78.60;;;;;;5132508;27;20002;-69
2022/08/19 07:24:13;;;;;;;;;;;21.10;78.60;;;;;;5132894;27;19919;-70
2022/08/19 07:26:41;;;;;;;;;;;21.10;78.60;;;;;;5130872;27;19919;-69
2022/08/19 07:29:08;;;;;;;;;;;21.10;78.40;;;;;;5131873;27;19926;-68
2022/08/19 07:31:36;;;;;;;;;;;21.10;78.40;;;;;;5131985;27;20304;-69
2022/08/19 07:34:06;;;;;;;;;;;21.10;78.40;;;;;;5132391;27;19921;-70
2022/08/19 07:36:33;;;;;;;;;;;21.20;78.30;;;;;;5125402;27;19966;-70
2022/08/19 07:39:00;;;;;;;;;;;21.20;78.30;;;;;;5127637;27;19930;-70
2022/08/19 07:41:31;;;;;;;;;;;21.20;78.20;;;;;;5126680;27;20309;-69
2022/08/19 07:43:58;;;;;;;;;;;21.20;77.90;;;;;;5129495;27;19927;-70
2022/08/19 07:46:26;;;;;;;;;;;21.20;78.00;;;;;;5131075;27;19919;-70
2022/08/19 07:48:53;;;;;;;;;;;21.20;78.10;;;;;;5128243;27;19923;-70
2022/08/19 07:51:22;;;;;;;;;;;21.20;78.00;;;;;;5126989;27;19931;-70
2022/08/19 07:53:50;;;;;;;;;;;21.20;78.10;;;;;;5127310;27;19920;-70
2022/08/19 07:56:17;;;;;;;;;;;21.10;78.20;;;;;;5128754;27;20245;-70
2022/08/19 07:59:04;;;;;;;;;;;21.10;78.20;;;;;;5127484;27;19919;-69
2022/08/19 08:01:34;;;;;;;;;;;21.10;78.30;;;;;;5125870;27;19919;-69
2022/08/19 08:09:32;;;;;;;;;;;21.20;78.30;;;;;;5126600;27;19919;-69
2022/08/19 08:12:00;;;;;;;;;;;21.20;78.20;;;;;;5130320;27;19920;-69
2022/08/19 08:14:28;;;;;;;;;;;21.20;78.20;;;;;;5126151;27;20389;-70
2022/08/19 08:16:55;;;;;;;;;;;21.30;78.20;;;;;;5130561;27;19942;-70
2022/08/19 08:19:23;;;;;;;;;;;21.30;77.60;;;;;;5124084;27;19926;-69
2022/08/19 08:21:51;;;;;;;;;;;21.30;78.00;;;;;;5131712;27;20030;-70
2022/08/19 08:24:18;;;;;;;;;;;21.30;78.00;;;;;;5131143;27;19926;-70
2022/08/19 08:26:46;;;;;;;;;;;21.40;78.00;;;;;;5131483;27;20005;-69
2022/08/19 08:29:12;;;;;;;;;;;21.40;77.60;;;;;;5131713;27;20014;-69
2022/08/19 08:31:39;;;;;;;;;;;21.40;77.80;;;;;;5130845;27;19933;-70
2022/08/19 08:34:06;;;;;;;;;;;21.50;77.40;;;;;;5131999;27;19961;-70
2022/08/19 08:36:33;;;;;;;;;;;21.60;77.60;;;;;;5125037;27;20299;-70
2022/08/19 08:39:01;;;;;;;;;;;21.60;77.40;;;;;;5125356;27;19927;-70
2022/08/19 08:41:31;;;;;;;;;;;21.70;77.40;;;;;;5130230;27;20014;-69
2022/08/19 08:43:58;;;;;;;;;;;21.70;77.30;;;;;;5130420;27;19923;-70
2022/08/19 08:46:29;;;;;;;;;;;21.80;77.10;;;;;;5129608;27;19924;-70
2022/08/19 08:48:58;;;;;;;;;;;21.90;77.00;;;;;;5131920;27;19919;-69
2022/08/19 08:51:28;;;;;;;;;;;21.90;76.00;;;;;;5132040;27;19923;-69
2022/08/19 08:53:55;;;;;;;;;;;22.00;75.40;;;;;;5121291;27;20314;-70
2022/08/19 08:56:23;;;;;;;;;;;22.10;75.50;;;;;;5130574;27;20380;-68
2022/08/19 08:58:55;;;;;;;;;;;22.10;74.90;;;;;;5126557;27;19926;-69
2022/08/19 09:01:22;;;;;;;;;;;22.20;74.00;;;;;;5123835;27;19926;-70
2022/08/19 09:03:49;;;;;;;;;;;22.40;73.70;;;;;;5128563;27;19924;-69
2022/08/19 09:06:20;;;;;;;;;;;22.60;73.30;;;;;;5125012;27;20017;-69
2022/08/19 09:08:50;;;;;;;;;;;22.70;71.80;;;;;;5131718;27;19920;-69
2022/08/19 09:11:20;;;;;;;;;;;22.90;71.80;;;;;;5131209;27;19919;-69
2022/08/19 09:13:53;;;;;;;;;;;23.00;70.40;;;;;;5131416;27;19926;-69
2022/08/19 09:16:23;;;;;;;;;;;23.20;69.80;;;;;;5129057;27;19951;-69
2022/08/19 09:18:52;;;;;;;;;;;23.30;69.90;;;;;;5127045;27;19930;-68
2022/08/19 09:21:20;;;;;;;;;;;23.40;69.90;;;;;;5128114;27;19928;-68
2022/08/19 09:23:46;;;;;;;;;;;23.50;69.50;;;;;;5124820;27;19977;-69
2022/08/19 09:26:14;;;;;;;;;;;23.60;68.90;;;;;;5126523;27;19919;-69
2022/08/19 09:28:43;;;;;;;;;;;23.60;68.00;;;;;;5129860;27;19920;-69
2022/08/19 09:31:11;;;;;;;;;;;23.70;67.70;;;;;;5127900;28;19927;-69
2022/08/19 09:33:38;;;;;;;;;;;23.70;66.90;;;;;;5128205;27;19927;-68
2022/08/19 09:36:06;;;;;;;;;;;23.80;68.00;;;;;;5129681;27;20015;-69
2022/08/19 09:38:33;;;;;;;;;;;23.80;67.50;;;;;;5130083;27;20358;-69
2022/08/19 09:41:04;;;;;;;;;;;23.80;67.00;;;;;;5123014;27;19920;-69
2022/08/19 09:43:31;;;;;;;;;;;23.80;67.40;;;;;;5125673;27;19920;-69
2022/08/19 09:45:58;;;;;;;;;;;23.90;66.90;;;;;;5127143;27;19920;-69
2022/08/19 09:48:26;;;;;;;;;;;24.00;66.80;;;;;;5119719;27;19923;-68
2022/08/19 09:50:53;;;;;;;;;;;24.10;65.80;;;;;;5125123;27;20354;-68
2022/08/19 09:53:22;;;;;;;;;;;24.20;65.70;;;;;;5129939;27;19927;-68
2022/08/19 09:55:50;;;;;;;;;;;24.30;64.80;;;;;;5125822;27;19923;-68
2022/08/19 09:58:16;;;;;;;;;;;24.30;63.90;;;;;;5128760;27;19923;-68
2022/08/19 10:00:43;;;;;;;;;;;24.40;64.30;;;;;;5128653;27;19926;-71
2022/08/19 10:03:11;;;;;;;;;;;24.50;63.80;;;;;;5133505;27;19929;-68
2022/08/19 10:05:51;;;;;;;;;;;24.50;63.50;;;;;;5134907;27;19969;-69
2022/08/19 10:08:19;;;;;;;;;;;24.60;63.50;;;;;;5134554;27;19934;-69
2022/08/19 10:10:46;;;;;;;;;;;24.60;63.20;;;;;;5137138;27;19927;-69
2022/08/19 10:13:14;;;;;;;;;;;24.70;63.20;;;;;;5131516;27;19919;-69
2022/08/19 10:15:41;;;;;;;;;;;24.80;63.40;;;;;;5133400;27;19920;-70
2022/08/19 10:18:08;;;;;;;;;;;24.90;62.80;;;;;;5129863;27;19919;-69
2022/08/19 10:20:35;;;;;;;;;;;25.00;62.80;;;;;;5131712;27;20173;-69
2022/08/19 10:23:03;;;;;;;;;;;25.10;62.50;;;;;;5133735;27;19980;-69
2022/08/19 10:25:30;;;;;;;;;;;25.10;62.40;;;;;;5133792;27;19920;-68
2022/08/19 10:27:57;;;;;;;;;;;25.30;61.70;;;;;;5131638;27;19926;-69
2022/08/19 10:30:24;;;;;;;;;;;25.30;61.40;;;;;;5136033;27;19919;-69
2022/08/19 10:32:50;;;;;;;;;;;25.50;60.30;;;;;;5134069;27;19926;-70
2022/08/19 10:35:17;;;;;;;;;;;25.60;59.60;;;;;;5133064;27;20258;-70
2022/08/19 10:37:44;;;;;;;;;;;25.70;59.90;;;;;;5129506;27;19942;-68
2022/08/19 10:40:12;;;;;;;;;;;25.80;58.30;;;;;;5134166;27;19926;-69
2022/08/19 10:42:39;;;;;;;;;;;25.90;58.50;;;;;;5133577;27;19931;-69
2022/08/19 10:45:06;;;;;;;;;;;26.00;58.10;;;;;;5131931;27;19919;-68
2022/08/19 10:47:34;;;;;;;;;;;26.10;58.00;;;;;;5137281;27;19920;-69
2022/08/19 10:52:49;;;;;;;;;;;26.30;57.30;;;;;;5131183;27;19923;-69
2022/08/19 10:58:02;;;;;;;;;;;26.60;56.80;;;;;;5132451;27;19996;-68
2022/08/19 11:00:30;;;;;;;;;;;26.70;56.70;;;;;;5127013;27;20419;-69
2022/08/19 11:03:02;;;;;;;;;;;26.70;56.20;;;;;;5129414;27;19920;-67
2022/08/19 11:05:30;;;;;;;;;;;26.70;56.30;;;;;;5131229;27;19923;-69
2022/08/19 11:07:56;;;;;;;;;;;26.60;55.40;;;;;;5129493;27;20395;-68
2022/08/19 11:10:24;;;;;;;;;;;26.60;55.50;;;;;;5131296;27;19919;-69
2022/08/19 11:12:53;;;;;;;;;;;26.80;54.40;;;;;;5130466;27;20395;-68
2022/08/19 11:15:20;;;;;;;;;;;26.90;54.80;;;;;;5130910;27;20309;-70
2022/08/19 11:17:47;;;;;;;;;;;27.00;53.70;;;;;;5124582;27;20436;-70
2022/08/19 11:20:15;;;;;;;;;;;27.10;53.90;;;;;;5131422;27;19923;-69
2022/08/19 11:22:42;;;;;;;;;;;27.10;53.90;;;;;;5131083;27;19919;-69
2022/08/19 11:25:10;;;;;;;;;;;27.00;54.30;;;;;;5128824;27;19920;-69
2022/08/19 11:27:41;;;;;;;;;;;27.00;54.40;;;;;;5128996;27;19933;-68
2022/08/19 11:30:08;;;;;;;;;;;27.00;54.10;;;;;;5128443;27;20005;-70
2022/08/19 11:32:35;;;;;;;;;;;27.10;54.00;;;;;;5129893;27;19926;-68
2022/08/19 11:35:02;;;;;;;;;;;27.00;54.30;;;;;;5132157;27;19925;-68
2022/08/19 11:37:29;;;;;;;;;;;27.00;54.20;;;;;;5132539;27;19919;-69
2022/08/19 11:39:56;;;;;;;;;;;26.90;54.20;;;;;;5132987;27;19919;-70
2022/08/19 11:45:09;;;;;;;;;;;26.70;54.20;;;;;;5129839;27;20023;-68
2022/08/19 11:47:36;;;;;;;;;;;26.70;53.30;;;;;;5130972;27;19941;-68
2022/08/19 11:50:04;;;;;;;;;;;26.60;53.50;;;;;;5132430;27;19931;-69
2022/08/19 11:52:30;;;;;;;;;;;26.60;53.50;;;;;;5131955;27;19941;-70
2022/08/19 11:54:57;;;;;;;;;;;26.60;53.20;;;;;;5125223;27;19926;-70
2022/08/19 11:57:24;;;;;;;;;;;26.60;52.30;;;;;;5130838;27;19933;-70
2022/08/19 11:59:51;;;;;;;;;;;26.60;52.40;;;;;;5130762;27;19926;-69
2022/08/19 12:02:19;;;;;;;;;;;26.80;52.50;;;;;;5127785;27;20369;-69
2022/08/19 12:04:47;;;;;;;;;;;26.80;52.60;;;;;;5132430;27;19964;-68
2022/08/19 12:07:13;;;;;;;;;;;26.90;52.30;;;;;;5131258;27;19919;-70
2022/08/19 12:09:40;;;;;;;;;;;27.00;51.80;;;;;;5130716;27;19930;-68
2022/08/19 12:12:08;;;;;;;;;;;27.10;51.20;;;;;;5127705;27;19926;-69
2022/08/19 12:14:35;;;;;;;;;;;27.20;51.30;;;;;;5131717;27;19919;-69
2022/08/19 12:17:02;;;;;;;;;;;27.30;51.60;;;;;;5130421;27;19923;-69
2022/08/19 12:19:30;;;;;;;;;;;27.30;50.70;;;;;;5128876;27;19919;-68
2022/08/19 12:22:00;;;;;;;;;;;27.40;50.40;;;;;;5131397;27;19920;-67
2022/08/19 12:24:29;;;;;;;;;;;27.40;49.80;;;;;;5131436;27;19919;-69
2022/08/19 12:26:56;;;;;;;;;;;27.40;49.20;;;;;;5122471;27;19927;-70
2022/08/19 12:29:28;;;;;;;;;;;27.40;50.20;;;;;;5131802;27;19919;-69
2022/08/19 12:32:00;;;;;;;;;;;27.40;50.50;;;;;;5129653;27;19966;-69
2022/08/19 12:34:30;;;;;;;;;;;27.40;49.30;;;;;;5127130;27;20276;-68
2022/08/19 12:36:59;;;;;;;;;;;27.40;49.30;;;;;;5125129;27;19948;-69
2022/08/19 12:39:26;;;;;;;;;;;27.50;48.80;;;;;;5128223;27;19930;-69
2022/08/19 12:41:53;;;;;;;;;;;27.50;49.00;;;;;;5130202;27;19970;-69
2022/08/19 12:44:20;;;;;;;;;;;27.50;49.20;;;;;;5126456;27;20395;-69
2022/08/19 12:46:47;;;;;;;;;;;27.40;49.10;;;;;;5117836;27;20002;-68
2022/08/19 12:49:15;;;;;;;;;;;27.40;49.00;;;;;;5129059;27;20308;-70
2022/08/19 12:51:42;;;;;;;;;;;27.30;49.00;;;;;;5130077;27;19942;-68
2022/08/19 12:54:10;;;;;;;;;;;27.20;49.40;;;;;;5128090;27;19926;-69
2022/08/19 12:56:37;;;;;;;;;;;27.20;49.40;;;;;;5137896;27;20017;-68
2022/08/19 12:59:04;;;;;;;;;;;27.10;49.60;;;;;;5130375;27;20370;-69
2022/08/19 13:01:32;;;;;;;;;;;27.00;49.70;;;;;;5125728;27;19964;-68
2022/08/19 13:03:59;;;;;;;;;;;26.90;50.00;;;;;;5127310;27;19941;-69
2022/08/19 13:06:26;;;;;;;;;;;26.90;50.00;;;;;;5123835;27;19919;-69
2022/08/19 13:08:53;;;;;;;;;;;26.90;50.00;;;;;;5127148;27;19923;-68
2022/08/19 13:11:24;;;;;;;;;;;26.90;50.10;;;;;;5125969;27;19923;-68
2022/08/19 13:13:51;;;;;;;;;;;26.90;50.10;;;;;;5130220;27;19927;-69
2022/08/19 13:16:19;;;;;;;;;;;26.80;50.30;;;;;;5129444;27;19920;-67
2022/08/19 13:18:47;;;;;;;;;;;26.80;50.50;;;;;;5129091;27;19919;-69
2022/08/19 13:21:14;;;;;;;;;;;26.80;50.90;;;;;;5129359;27;19925;-69
2022/08/19 13:23:41;;;;;;;;;;;26.70;51.30;;;;;;5129726;27;19923;-69
2022/08/19 13:26:09;;;;;;;;;;;26.60;51.40;;;;;;5127573;27;19930;-69
2022/08/19 13:34:06;;;;;;;;;;;26.60;52.40;;;;;;5130572;27;19923;-69
2022/08/19 13:36:33;;;;;;;;;;;26.60;52.10;;;;;;5134598;27;19923;-68
2022/08/19 13:39:00;;;;;;;;;;;26.60;51.90;;;;;;5130533;27;19941;-69
2022/08/19 13:41:27;;;;;;;;;;;26.50;52.00;;;;;;5132494;27;19923;-68
2022/08/19 13:43:55;;;;;;;;;;;26.50;51.70;;;;;;5122239;27;20328;-69
2022/08/19 13:46:22;;;;;;;;;;;26.50;51.60;;;;;;5135153;27;20402;-69
2022/08/19 13:48:50;;;;;;;;;;;26.40;51.60;;;;;;5134060;27;19923;-69
2022/08/19 13:51:17;;;;;;;;;;;26.30;51.70;;;;;;5129156;27;19980;-70
2022/08/19 13:53:44;;;;;;;;;;;26.30;51.80;;;;;;5134696;27;19919;-68
2022/08/19 13:56:12;;;;;;;;;;;26.30;52.00;;;;;;5135528;27;19942;-69
2022/08/19 13:58:40;;;;;;;;;;;26.20;52.20;;;;;;5132021;27;19919;-68
2022/08/19 14:01:09;;;;;;;;;;;26.30;52.50;;;;;;5130359;27;19919;-68
2022/08/19 14:03:36;;;;;;;;;;;26.30;52.80;;;;;;5134193;27;19926;-68
2022/08/19 14:06:03;;;;;;;;;;;26.30;53.00;;;;;;5132451;27;19926;-68
2022/08/19 14:08:31;;;;;;;;;;;26.30;52.90;;;;;;5127661;27;20361;-69
2022/08/19 14:10:58;;;;;;;;;;;26.30;52.80;;;;;;5131882;27;19925;-69
2022/08/19 14:13:25;;;;;;;;;;;26.30;52.90;;;;;;5128887;27;19925;-69
2022/08/19 14:15:52;;;;;;;;;;;26.40;53.00;;;;;;5130755;27;20018;-68
2022/08/19 14:18:20;;;;;;;;;;;26.40;52.80;;;;;;5131863;27;19919;-68
2022/08/19 14:20:47;;;;;;;;;;;26.40;53.00;;;;;;5126961;27;19919;-68
2022/08/19 14:23:14;;;;;;;;;;;26.50;52.90;;;;;;5131761;27;19926;-69
2022/08/19 14:25:41;;;;;;;;;;;26.50;52.60;;;;;;5130514;27;19927;-68
2022/08/19 14:28:08;;;;;;;;;;;26.50;52.70;;;;;;5132709;27;20003;-68
2022/08/19 14:30:37;;;;;;;;;;;26.60;52.60;;;;;;5129916;27;19970;-69
2022/08/19 14:33:04;;;;;;;;;;;26.60;52.50;;;;;;5131945;27;20391;-69
2022/08/19 14:35:34;;;;;;;;;;;26.60;52.60;;;;;;5123983;27;19923;-68
2022/08/19 14:38:01;;;;;;;;;;;26.60;52.80;;;;;;5131257;27;19926;-69
2022/08/19 14:40:29;;;;;;;;;;;26.60;52.80;;;;;;5125553;27;19974;-68
2022/08/19 14:42:59;;;;;;;;;;;26.60;52.80;;;;;;5132116;27;20308;-68
2022/08/19 14:45:26;;;;;;;;;;;26.70;52.60;;;;;;5132568;27;19924;-69
2022/08/19 14:47:52;;;;;;;;;;;26.80;52.70;;;;;;5130145;27;19934;-68
2022/08/19 14:50:19;;;;;;;;;;;26.70;52.70;;;;;;5130392;27;19931;-68